Terminal Aerodrome Forecast
Issued by NWS

Home | Current Version | Previous Version | Text Only | Print | Product List | Glossary On
Versions: 1 2 3 4 5 6 7 8 9 10 11 12 13 14 15 16 17 18
000
FTUS44 KMAF 301100
TAFINK
TAF
KINK 301124Z 3012/3112 15011KT P6SM SCT100 BKN250
     FM301900 23010KT P6SM BKN060 OVC250 PROB30 3022/3102 TSRA
      BKN050CB
     FM310200 04010KT P6SM BKN060 OVC250=

USA.gov is the U.S. government's official web portal to all federal, state and local government web resources and services.